sensor_id;sensor_type;location;lat;lon;timestamp;P1;durP1;ratioP1;P2;durP2;ratioP2
29352;SDS011;16344;50.364;8.944;2023-03-15T00:02:01;34.15;;;4.72;;
29352;SDS011;16344;50.364;8.944;2023-03-15T00:04:27;13.60;;;4.03;;
29352;SDS011;16344;50.364;8.944;2023-03-15T00:06:53;33.00;;;5.15;;
29352;SDS011;16344;50.364;8.944;2023-03-15T00:09:20;20.40;;;4.50;;
29352;SDS011;16344;50.364;8.944;2023-03-15T00:11:46;16.05;;;3.45;;
29352;SDS011;16344;50.364;8.944;2023-03-15T00:14:15;27.20;;;3.75;;
29352;SDS011;16344;50.364;8.944;2023-03-15T00:16:41;21.98;;;4.13;;
29352;SDS011;16344;50.364;8.944;2023-03-15T00:19:07;25.40;;;5.25;;
29352;SDS011;16344;50.364;8.944;2023-03-15T00:21:33;20.75;;;3.42;;
29352;SDS011;16344;50.364;8.944;2023-03-15T00:23:59;28.10;;;5.47;;
29352;SDS011;16344;50.364;8.944;2023-03-15T00:26:25;38.83;;;3.15;;
29352;SDS011;16344;50.364;8.944;2023-03-15T00:28:50;20.88;;;3.20;;
29352;SDS011;16344;50.364;8.944;2023-03-15T00:31:17;27.52;;;3.47;;
29352;SDS011;16344;50.364;8.944;2023-03-15T00:33:47;29.17;;;3.70;;
29352;SDS011;16344;50.364;8.944;2023-03-15T00:36:17;24.33;;;4.50;;
29352;SDS011;16344;50.364;8.944;2023-03-15T00:38:43;13.90;;;3.33;;
29352;SDS011;16344;50.364;8.944;2023-03-15T00:41:10;22.23;;;3.67;;
29352;SDS011;16344;50.364;8.944;2023-03-15T00:43:39;18.13;;;4.63;;
29352;SDS011;16344;50.364;8.944;2023-03-15T00:46:06;33.15;;;4.05;;
29352;SDS011;16344;50.364;8.944;2023-03-15T00:48:32;45.05;;;5.15;;
29352;SDS011;16344;50.364;8.944;2023-03-15T00:51:03;25.90;;;3.90;;
29352;SDS011;16344;50.364;8.944;2023-03-15T00:53:37;19.15;;;4.50;;
29352;SDS011;16344;50.364;8.944;2023-03-15T00:56:06;25.70;;;4.25;;
29352;SDS011;16344;50.364;8.944;2023-03-15T00:58:34;22.08;;;3.25;;
29352;SDS011;16344;50.364;8.944;2023-03-15T01:01:03;22.02;;;4.57;;
29352;SDS011;16344;50.364;8.944;2023-03-15T01:03:30;26.80;;;4.03;;
29352;SDS011;16344;50.364;8.944;2023-03-15T01:05:55;20.80;;;4.00;;
29352;SDS011;16344;50.364;8.944;2023-03-15T01:08:21;35.28;;;4.18;;
29352;SDS011;16344;50.364;8.944;2023-03-15T01:10:48;22.58;;;4.97;;
29352;SDS011;16344;50.364;8.944;2023-03-15T01:13:17;24.67;;;4.00;;
29352;SDS011;16344;50.364;8.944;2023-03-15T01:15:45;24.08;;;3.75;;
29352;SDS011;16344;50.364;8.944;2023-03-15T01:18:11;13.43;;;3.40;;
29352;SDS011;16344;50.364;8.944;2023-03-15T01:20:37;24.05;;;3.55;;
29352;SDS011;16344;50.364;8.944;2023-03-15T01:23:08;20.77;;;3.80;;
29352;SDS011;16344;50.364;8.944;2023-03-15T01:25:34;23.77;;;4.05;;
29352;SDS011;16344;50.364;8.944;2023-03-15T01:28:00;31.15;;;3.78;;
29352;SDS011;16344;50.364;8.944;2023-03-15T01:30:25;25.30;;;3.63;;
29352;SDS011;16344;50.364;8.944;2023-03-15T01:32:51;48.22;;;5.82;;
29352;SDS011;16344;50.364;8.944;2023-03-15T01:35:19;35.72;;;4.45;;
29352;SDS011;16344;50.364;8.944;2023-03-15T01:37:47;35.88;;;3.67;;
29352;SDS011;16344;50.364;8.944;2023-03-15T01:40:14;31.45;;;3.35;;
29352;SDS011;16344;50.364;8.944;2023-03-15T01:46:01;29.38;;;3.70;;
29352;SDS011;16344;50.364;8.944;2023-03-15T01:48:54;20.20;;;3.60;;
29352;SDS011;16344;50.364;8.944;2023-03-15T01:51:35;26.38;;;3.78;;
29352;SDS011;16344;50.364;8.944;2023-03-15T01:54:17;26.70;;;3.97;;
29352;SDS011;16344;50.364;8.944;2023-03-15T01:59:34;30.15;;;5.28;;
29352;SDS011;16344;50.364;8.944;2023-03-15T02:02:02;27.20;;;3.40;;
29352;SDS011;16344;50.364;8.944;2023-03-15T02:04:33;20.35;;;3.47;;
29352;SDS011;16344;50.364;8.944;2023-03-15T02:09:34;50.85;;;6.35;;
29352;SDS011;16344;50.364;8.944;2023-03-15T02:12:13;23.38;;;3.10;;
29352;SDS011;16344;50.364;8.944;2023-03-15T02:14:39;12.45;;;2.95;;
29352;SDS011;16344;50.364;8.944;2023-03-15T02:17:05;13.18;;;2.63;;
29352;SDS011;16344;50.364;8.944;2023-03-15T02:19:45;37.70;;;3.90;;
29352;SDS011;16344;50.364;8.944;2023-03-15T02:22:28;24.38;;;3.53;;
29352;SDS011;16344;50.364;8.944;2023-03-15T02:25:10;21.75;;;3.15;;
29352;SDS011;16344;50.364;8.944;2023-03-15T02:27:44;26.67;;;3.03;;
29352;SDS011;16344;50.364;8.944;2023-03-15T02:30:10;16.92;;;3.10;;
29352;SDS011;16344;50.364;8.944;2023-03-15T02:32:36;25.77;;;3.15;;
29352;SDS011;16344;50.364;8.944;2023-03-15T02:35:01;9.75;;;2.40;;
29352;SDS011;16344;50.364;8.944;2023-03-15T02:37:27;17.58;;;2.67;;
29352;SDS011;16344;50.364;8.944;2023-03-15T02:39:53;26.73;;;4.47;;
29352;SDS011;16344;50.364;8.944;2023-03-15T02:42:18;24.75;;;3.42;;
29352;SDS011;16344;50.364;8.944;2023-03-15T02:44:45;32.60;;;3.65;;
29352;SDS011;16344;50.364;8.944;2023-03-15T02:47:14;18.33;;;3.97;;
29352;SDS011;16344;50.364;8.944;2023-03-15T02:49:45;21.13;;;2.85;;
29352;SDS011;16344;50.364;8.944;2023-03-15T02:52:14;24.75;;;3.15;;
29352;SDS011;16344;50.364;8.944;2023-03-15T02:54:40;29.70;;;3.47;;
29352;SDS011;16344;50.364;8.944;2023-03-15T02:57:10;24.13;;;3.42;;
29352;SDS011;16344;50.364;8.944;2023-03-15T02:59:39;24.70;;;3.50;;
29352;SDS011;16344;50.364;8.944;2023-03-15T03:02:08;46.25;;;5.15;;
29352;SDS011;16344;50.364;8.944;2023-03-15T03:04:35;29.60;;;3.28;;
29352;SDS011;16344;50.364;8.944;2023-03-15T03:07:05;61.03;;;4.72;;
29352;SDS011;16344;50.364;8.944;2023-03-15T03:09:31;34.22;;;4.97;;
29352;SDS011;16344;50.364;8.944;2023-03-15T03:11:56;22.27;;;3.47;;
29352;SDS011;16344;50.364;8.944;2023-03-15T03:14:22;30.15;;;2.78;;
29352;SDS011;16344;50.364;8.944;2023-03-15T03:16:48;22.90;;;3.95;;
29352;SDS011;16344;50.364;8.944;2023-03-15T03:19:15;17.60;;;3.92;;
29352;SDS011;16344;50.364;8.944;2023-03-15T03:21:41;34.90;;;4.57;;
29352;SDS011;16344;50.364;8.944;2023-03-15T03:24:08;45.20;;;3.33;;
29352;SDS011;16344;50.364;8.944;2023-03-15T03:26:34;17.75;;;3.42;;
29352;SDS011;16344;50.364;8.944;2023-03-15T03:29:02;17.80;;;3.17;;
29352;SDS011;16344;50.364;8.944;2023-03-15T03:31:30;27.65;;;3.03;;
29352;SDS011;16344;50.364;8.944;2023-03-15T03:33:58;27.10;;;3.65;;
29352;SDS011;16344;50.364;8.944;2023-03-15T03:36:24;33.30;;;3.30;;
29352;SDS011;16344;50.364;8.944;2023-03-15T03:38:50;22.67;;;3.13;;
29352;SDS011;16344;50.364;8.944;2023-03-15T03:41:16;28.58;;;3.80;;
29352;SDS011;16344;50.364;8.944;2023-03-15T03:43:41;18.75;;;2.80;;
29352;SDS011;16344;50.364;8.944;2023-03-15T03:46:07;29.95;;;2.83;;
29352;SDS011;16344;50.364;8.944;2023-03-15T03:48:33;20.95;;;3.40;;
29352;SDS011;16344;50.364;8.944;2023-03-15T03:50:58;30.45;;;3.53;;
29352;SDS011;16344;50.364;8.944;2023-03-15T03:53:24;22.75;;;3.75;;
29352;SDS011;16344;50.364;8.944;2023-03-15T03:55:49;28.40;;;3.47;;
29352;SDS011;16344;50.364;8.944;2023-03-15T03:58:15;23.20;;;3.55;;
29352;SDS011;16344;50.364;8.944;2023-03-15T04:00:41;28.60;;;3.17;;
29352;SDS011;16344;50.364;8.944;2023-03-15T04:03:08;19.90;;;3.08;;
29352;SDS011;16344;50.364;8.944;2023-03-15T04:05:37;32.92;;;3.40;;
29352;SDS011;16344;50.364;8.944;2023-03-15T04:08:03;23.77;;;3.78;;
29352;SDS011;16344;50.364;8.944;2023-03-15T04:10:28;19.20;;;3.03;;
29352;SDS011;16344;50.364;8.944;2023-03-15T04:12:59;18.27;;;2.58;;
29352;SDS011;16344;50.364;8.944;2023-03-15T04:15:25;38.03;;;5.28;;
29352;SDS011;16344;50.364;8.944;2023-03-15T04:17:51;19.60;;;3.30;;
29352;SDS011;16344;50.364;8.944;2023-03-15T04:20:24;14.02;;;2.80;;
29352;SDS011;16344;50.364;8.944;2023-03-15T04:22:50;28.67;;;4.25;;
29352;SDS011;16344;50.364;8.944;2023-03-15T04:25:16;20.88;;;2.95;;
29352;SDS011;16344;50.364;8.944;2023-03-15T04:27:43;22.75;;;3.78;;
29352;SDS011;16344;50.364;8.944;2023-03-15T04:30:09;23.00;;;2.70;;
29352;SDS011;16344;50.364;8.944;2023-03-15T04:32:35;27.13;;;3.35;;
29352;SDS011;16344;50.364;8.944;2023-03-15T04:35:01;23.33;;;3.15;;
29352;SDS011;16344;50.364;8.944;2023-03-15T04:37:27;18.35;;;3.72;;
29352;SDS011;16344;50.364;8.944;2023-03-15T04:39:53;12.57;;;3.00;;
29352;SDS011;16344;50.364;8.944;2023-03-15T04:42:18;16.90;;;3.15;;
29352;SDS011;16344;50.364;8.944;2023-03-15T04:44:44;22.02;;;5.00;;
29352;SDS011;16344;50.364;8.944;2023-03-15T04:47:10;18.42;;;3.40;;
29352;SDS011;16344;50.364;8.944;2023-03-15T04:49:36;30.85;;;4.32;;
29352;SDS011;16344;50.364;8.944;2023-03-15T04:52:02;35.15;;;4.53;;
29352;SDS011;16344;50.364;8.944;2023-03-15T04:54:28;29.73;;;3.10;;
29352;SDS011;16344;50.364;8.944;2023-03-15T04:56:53;24.17;;;3.28;;
29352;SDS011;16344;50.364;8.944;2023-03-15T04:59:19;26.75;;;4.82;;
29352;SDS011;16344;50.364;8.944;2023-03-15T05:01:44;15.27;;;2.88;;
29352;SDS011;16344;50.364;8.944;2023-03-15T05:04:10;24.50;;;3.45;;
29352;SDS011;16344;50.364;8.944;2023-03-15T05:06:37;22.02;;;3.95;;
29352;SDS011;16344;50.364;8.944;2023-03-15T05:09:02;13.30;;;2.90;;
29352;SDS011;16344;50.364;8.944;2023-03-15T05:11:28;17.60;;;3.58;;
29352;SDS011;16344;50.364;8.944;2023-03-15T05:13:54;17.23;;;3.70;;
29352;SDS011;16344;50.364;8.944;2023-03-15T05:16:19;19.45;;;3.92;;
29352;SDS011;16344;50.364;8.944;2023-03-15T05:18:45;21.58;;;3.85;;
29352;SDS011;16344;50.364;8.944;2023-03-15T05:21:11;12.23;;;3.40;;
29352;SDS011;16344;50.364;8.944;2023-03-15T05:23:37;20.77;;;2.90;;
29352;SDS011;16344;50.364;8.944;2023-03-15T05:26:02;25.35;;;3.83;;
29352;SDS011;16344;50.364;8.944;2023-03-15T05:28:28;18.83;;;4.30;;
29352;SDS011;16344;50.364;8.944;2023-03-15T05:30:55;17.02;;;3.42;;
29352;SDS011;16344;50.364;8.944;2023-03-15T05:33:21;11.18;;;3.05;;
29352;SDS011;16344;50.364;8.944;2023-03-15T05:35:48;22.35;;;3.67;;
29352;SDS011;16344;50.364;8.944;2023-03-15T05:38:14;26.05;;;3.83;;
29352;SDS011;16344;50.364;8.944;2023-03-15T05:40:40;47.38;;;5.07;;
29352;SDS011;16344;50.364;8.944;2023-03-15T05:43:09;24.95;;;3.38;;
29352;SDS011;16344;50.364;8.944;2023-03-15T05:45:36;28.13;;;3.95;;
29352;SDS011;16344;50.364;8.944;2023-03-15T05:48:01;23.85;;;4.28;;
29352;SDS011;16344;50.364;8.944;2023-03-15T05:50:27;23.58;;;4.93;;
29352;SDS011;16344;50.364;8.944;2023-03-15T05:52:53;16.60;;;3.38;;
29352;SDS011;16344;50.364;8.944;2023-03-15T05:55:19;18.35;;;3.58;;
29352;SDS011;16344;50.364;8.944;2023-03-15T05:57:45;12.93;;;3.47;;
29352;SDS011;16344;50.364;8.944;2023-03-15T06:00:10;26.50;;;4.60;;
29352;SDS011;16344;50.364;8.944;2023-03-15T06:02:38;25.05;;;4.00;;
29352;SDS011;16344;50.364;8.944;2023-03-15T06:05:08;30.48;;;4.32;;
29352;SDS011;16344;50.364;8.944;2023-03-15T06:07:33;24.48;;;4.63;;
29352;SDS011;16344;50.364;8.944;2023-03-15T06:09:59;16.13;;;3.83;;
29352;SDS011;16344;50.364;8.944;2023-03-15T06:12:25;36.28;;;5.10;;
29352;SDS011;16344;50.364;8.944;2023-03-15T06:14:50;29.55;;;4.43;;
29352;SDS011;16344;50.364;8.944;2023-03-15T06:17:16;29.13;;;5.22;;
29352;SDS011;16344;50.364;8.944;2023-03-15T06:19:41;18.75;;;3.95;;
29352;SDS011;16344;50.364;8.944;2023-03-15T06:22:07;31.63;;;5.60;;
29352;SDS011;16344;50.364;8.944;2023-03-15T06:24:32;29.85;;;6.18;;
29352;SDS011;16344;50.364;8.944;2023-03-15T06:26:58;34.88;;;5.03;;
29352;SDS011;16344;50.364;8.944;2023-03-15T06:29:24;28.90;;;4.57;;
29352;SDS011;16344;50.364;8.944;2023-03-15T06:31:49;19.25;;;3.90;;
29352;SDS011;16344;50.364;8.944;2023-03-15T06:34:15;15.50;;;4.90;;
29352;SDS011;16344;50.364;8.944;2023-03-15T06:36:41;24.80;;;5.10;;
29352;SDS011;16344;50.364;8.944;2023-03-15T06:39:07;29.48;;;5.40;;
29352;SDS011;16344;50.364;8.944;2023-03-15T06:41:35;27.42;;;5.50;;
29352;SDS011;16344;50.364;8.944;2023-03-15T06:44:00;14.80;;;4.25;;
29352;SDS011;16344;50.364;8.944;2023-03-15T06:46:26;21.30;;;5.32;;
29352;SDS011;16344;50.364;8.944;2023-03-15T06:48:51;18.52;;;5.30;;
29352;SDS011;16344;50.364;8.944;2023-03-15T06:51:17;15.95;;;6.05;;
29352;SDS011;16344;50.364;8.944;2023-03-15T06:53:42;23.27;;;6.28;;
29352;SDS011;16344;50.364;8.944;2023-03-15T06:56:08;26.50;;;7.80;;
29352;SDS011;16344;50.364;8.944;2023-03-15T06:58:33;32.53;;;9.88;;
29352;SDS011;16344;50.364;8.944;2023-03-15T07:00:59;33.20;;;10.18;;
29352;SDS011;16344;50.364;8.944;2023-03-15T07:03:25;32.97;;;9.13;;
29352;SDS011;16344;50.364;8.944;2023-03-15T07:05:50;24.73;;;7.60;;
29352;SDS011;16344;50.364;8.944;2023-03-15T07:08:18;33.00;;;9.05;;
29352;SDS011;16344;50.364;8.944;2023-03-15T07:10:44;21.30;;;7.65;;
29352;SDS011;16344;50.364;8.944;2023-03-15T07:13:10;29.27;;;7.63;;
29352;SDS011;16344;50.364;8.944;2023-03-15T07:15:37;23.38;;;6.65;;
29352;SDS011;16344;50.364;8.944;2023-03-15T07:18:02;15.02;;;6.70;;
29352;SDS011;16344;50.364;8.944;2023-03-15T07:20:28;20.05;;;5.97;;
29352;SDS011;16344;50.364;8.944;2023-03-15T07:22:53;22.35;;;6.35;;
29352;SDS011;16344;50.364;8.944;2023-03-15T07:25:19;23.77;;;6.57;;
29352;SDS011;16344;50.364;8.944;2023-03-15T07:27:48;22.98;;;6.80;;
29352;SDS011;16344;50.364;8.944;2023-03-15T07:30:14;30.23;;;7.90;;
29352;SDS011;16344;50.364;8.944;2023-03-15T07:32:40;33.35;;;7.10;;
29352;SDS011;16344;50.364;8.944;2023-03-15T07:35:06;21.55;;;6.45;;
29352;SDS011;16344;50.364;8.944;2023-03-15T07:37:33;32.55;;;7.18;;
29352;SDS011;16344;50.364;8.944;2023-03-15T07:39:58;23.42;;;6.75;;
29352;SDS011;16344;50.364;8.944;2023-03-15T07:42:33;25.65;;;7.28;;
29352;SDS011;16344;50.364;8.944;2023-03-15T07:44:59;20.65;;;5.60;;
29352;SDS011;16344;50.364;8.944;2023-03-15T07:47:25;26.13;;;8.38;;
29352;SDS011;16344;50.364;8.944;2023-03-15T07:49:50;28.88;;;7.97;;
29352;SDS011;16344;50.364;8.944;2023-03-15T07:52:16;31.17;;;6.90;;
29352;SDS011;16344;50.364;8.944;2023-03-15T07:54:41;34.65;;;8.48;;
29352;SDS011;16344;50.364;8.944;2023-03-15T07:57:07;21.27;;;7.18;;
29352;SDS011;16344;50.364;8.944;2023-03-15T07:59:33;25.85;;;7.20;;
29352;SDS011;16344;50.364;8.944;2023-03-15T08:01:58;20.40;;;6.30;;
29352;SDS011;16344;50.364;8.944;2023-03-15T08:04:24;19.65;;;6.38;;
29352;SDS011;16344;50.364;8.944;2023-03-15T08:06:49;23.75;;;6.60;;
29352;SDS011;16344;50.364;8.944;2023-03-15T08:09:15;21.80;;;7.30;;
29352;SDS011;16344;50.364;8.944;2023-03-15T08:11:40;29.23;;;7.60;;
29352;SDS011;16344;50.364;8.944;2023-03-15T08:14:05;23.77;;;7.07;;
29352;SDS011;16344;50.364;8.944;2023-03-15T08:16:31;16.55;;;6.32;;
29352;SDS011;16344;50.364;8.944;2023-03-15T08:18:57;17.65;;;7.00;;
29352;SDS011;16344;50.364;8.944;2023-03-15T08:21:22;21.45;;;8.73;;
29352;SDS011;16344;50.364;8.944;2023-03-15T08:23:47;27.30;;;8.27;;
29352;SDS011;16344;50.364;8.944;2023-03-15T08:26:13;24.98;;;8.65;;
29352;SDS011;16344;50.364;8.944;2023-03-15T08:28:39;24.75;;;8.13;;
29352;SDS011;16344;50.364;8.944;2023-03-15T08:31:05;13.50;;;7.38;;
29352;SDS011;16344;50.364;8.944;2023-03-15T08:33:31;18.48;;;7.88;;
29352;SDS011;16344;50.364;8.944;2023-03-15T08:35:57;27.98;;;10.60;;
29352;SDS011;16344;50.364;8.944;2023-03-15T08:38:22;30.45;;;10.10;;
29352;SDS011;16344;50.364;8.944;2023-03-15T08:40:48;29.42;;;9.52;;
29352;SDS011;16344;50.364;8.944;2023-03-15T08:43:14;23.80;;;9.77;;
29352;SDS011;16344;50.364;8.944;2023-03-15T08:45:39;31.58;;;9.23;;
29352;SDS011;16344;50.364;8.944;2023-03-15T08:48:05;24.55;;;9.80;;
29352;SDS011;16344;50.364;8.944;2023-03-15T08:50:30;28.95;;;10.25;;
29352;SDS011;16344;50.364;8.944;2023-03-15T08:52:56;30.55;;;11.10;;
29352;SDS011;16344;50.364;8.944;2023-03-15T08:55:22;28.75;;;9.90;;
29352;SDS011;16344;50.364;8.944;2023-03-15T08:57:48;26.50;;;9.82;;
29352;SDS011;16344;50.364;8.944;2023-03-15T09:00:13;31.85;;;10.43;;
29352;SDS011;16344;50.364;8.944;2023-03-15T09:02:49;34.60;;;11.52;;
29352;SDS011;16344;50.364;8.944;2023-03-15T09:05:19;32.25;;;10.48;;
29352;SDS011;16344;50.364;8.944;2023-03-15T09:07:46;34.22;;;10.57;;
29352;SDS011;16344;50.364;8.944;2023-03-15T09:10:12;27.70;;;9.57;;
29352;SDS011;16344;50.364;8.944;2023-03-15T09:12:43;30.80;;;10.60;;
29352;SDS011;16344;50.364;8.944;2023-03-15T09:15:10;27.40;;;9.30;;
29352;SDS011;16344;50.364;8.944;2023-03-15T09:17:36;27.27;;;8.85;;
29352;SDS011;16344;50.364;8.944;2023-03-15T09:20:03;28.45;;;8.63;;
29352;SDS011;16344;50.364;8.944;2023-03-15T09:22:35;30.08;;;9.98;;
29352;SDS011;16344;50.364;8.944;2023-03-15T09:25:01;26.77;;;10.43;;
29352;SDS011;16344;50.364;8.944;2023-03-15T09:27:28;18.05;;;7.88;;
29352;SDS011;16344;50.364;8.944;2023-03-15T09:29:55;35.67;;;8.77;;
29352;SDS011;16344;50.364;8.944;2023-03-15T09:32:20;26.27;;;7.25;;
29352;SDS011;16344;50.364;8.944;2023-03-15T09:34:46;18.65;;;6.10;;
29352;SDS011;16344;50.364;8.944;2023-03-15T09:37:11;20.13;;;7.10;;
29352;SDS011;16344;50.364;8.944;2023-03-15T09:39:37;24.77;;;6.65;;
29352;SDS011;16344;50.364;8.944;2023-03-15T09:42:03;13.43;;;5.80;;
29352;SDS011;16344;50.364;8.944;2023-03-15T09:47:36;13.57;;;4.78;;
29352;SDS011;16344;50.364;8.944;2023-03-15T09:50:29;22.38;;;5.32;;
29352;SDS011;16344;50.364;8.944;2023-03-15T09:53:01;12.35;;;6.20;;
29352;SDS011;16344;50.364;8.944;2023-03-15T09:55:34;15.25;;;5.32;;
29352;SDS011;16344;50.364;8.944;2023-03-15T09:58:03;13.43;;;5.57;;
29352;SDS011;16344;50.364;8.944;2023-03-15T10:00:45;15.23;;;5.10;;
29352;SDS011;16344;50.364;8.944;2023-03-15T10:03:20;16.17;;;3.83;;
29352;SDS011;16344;50.364;8.944;2023-03-15T10:06:21;4.90;;;3.50;;
29352;SDS011;16344;50.364;8.944;2023-03-15T10:08:53;8.85;;;3.78;;
29352;SDS011;16344;50.364;8.944;2023-03-15T10:11:35;6.03;;;3.10;;
29352;SDS011;16344;50.364;8.944;2023-03-15T10:14:20;4.38;;;2.58;;
29352;SDS011;16344;50.364;8.944;2023-03-15T10:17:12;3.25;;;2.40;;
29352;SDS011;16344;50.364;8.944;2023-03-15T10:19:46;4.32;;;2.55;;
29352;SDS011;16344;50.364;8.944;2023-03-15T10:25:24;4.38;;;2.97;;
29352;SDS011;16344;50.364;8.944;2023-03-15T10:30:26;4.68;;;2.47;;
29352;SDS011;16344;50.364;8.944;2023-03-15T10:33:10;7.18;;;2.90;;
29352;SDS011;16344;50.364;8.944;2023-03-15T10:35:52;16.58;;;8.77;;
29352;SDS011;16344;50.364;8.944;2023-03-15T10:38:19;6.13;;;3.53;;
29352;SDS011;16344;50.364;8.944;2023-03-15T10:40:47;6.20;;;3.42;;
29352;SDS011;16344;50.364;8.944;2023-03-15T10:45:48;5.72;;;3.50;;
29352;SDS011;16344;50.364;8.944;2023-03-15T10:48:28;8.75;;;2.95;;
29352;SDS011;16344;50.364;8.944;2023-03-15T10:51:03;12.00;;;3.55;;
29352;SDS011;16344;50.364;8.944;2023-03-15T10:53:59;3.75;;;2.75;;
29352;SDS011;16344;50.364;8.944;2023-03-15T10:59:32;9.48;;;3.60;;
29352;SDS011;16344;50.364;8.944;2023-03-15T11:04:43;6.18;;;3.17;;
29352;SDS011;16344;50.364;8.944;2023-03-15T11:07:13;10.07;;;4.07;;
29352;SDS011;16344;50.364;8.944;2023-03-15T11:09:40;6.15;;;3.47;;
29352;SDS011;16344;50.364;8.944;2023-03-15T11:14:49;5.18;;;3.50;;
29352;SDS011;16344;50.364;8.944;2023-03-15T11:17:27;6.53;;;3.42;;
29352;SDS011;16344;50.364;8.944;2023-03-15T11:19:59;4.15;;;3.28;;
29352;SDS011;16344;50.364;8.944;2023-03-15T11:22:40;7.18;;;3.33;;
29352;SDS011;16344;50.364;8.944;2023-03-15T11:25:13;5.05;;;3.38;;
29352;SDS011;16344;50.364;8.944;2023-03-15T11:27:39;5.70;;;2.72;;
29352;SDS011;16344;50.364;8.944;2023-03-15T11:30:16;5.00;;;2.85;;
29352;SDS011;16344;50.364;8.944;2023-03-15T11:32:43;4.78;;;3.10;;
29352;SDS011;16344;50.364;8.944;2023-03-15T11:35:14;9.75;;;5.43;;
29352;SDS011;16344;50.364;8.944;2023-03-15T11:37:59;27.08;;;11.65;;
29352;SDS011;16344;50.364;8.944;2023-03-15T11:40:38;5.50;;;4.05;;
29352;SDS011;16344;50.364;8.944;2023-03-15T11:43:12;4.65;;;3.55;;
29352;SDS011;16344;50.364;8.944;2023-03-15T11:45:50;6.50;;;2.85;;
29352;SDS011;16344;50.364;8.944;2023-03-15T11:50:51;12.15;;;3.20;;
29352;SDS011;16344;50.364;8.944;2023-03-15T11:53:17;10.05;;;2.40;;
29352;SDS011;16344;50.364;8.944;2023-03-15T11:55:48;7.10;;;3.08;;
29352;SDS011;16344;50.364;8.944;2023-03-15T11:58:32;11.63;;;3.03;;
29352;SDS011;16344;50.364;8.944;2023-03-15T12:01:06;5.70;;;3.33;;
29352;SDS011;16344;50.364;8.944;2023-03-15T12:03:36;6.38;;;3.42;;
29352;SDS011;16344;50.364;8.944;2023-03-15T12:08:46;7.75;;;3.55;;
29352;SDS011;16344;50.364;8.944;2023-03-15T12:14:04;37.97;;;15.13;;
29352;SDS011;16344;50.364;8.944;2023-03-15T12:16:41;22.02;;;7.35;;
29352;SDS011;16344;50.364;8.944;2023-03-15T12:19:13;4.68;;;2.70;;
29352;SDS011;16344;50.364;8.944;2023-03-15T12:22:01;4.32;;;2.72;;
29352;SDS011;16344;50.364;8.944;2023-03-15T12:24:29;5.25;;;2.58;;
29352;SDS011;16344;50.364;8.944;2023-03-15T12:27:02;7.75;;;2.28;;
29352;SDS011;16344;50.364;8.944;2023-03-15T12:29:43;14.50;;;5.47;;
29352;SDS011;16344;50.364;8.944;2023-03-15T12:32:13;22.70;;;3.72;;
29352;SDS011;16344;50.364;8.944;2023-03-15T12:34:42;5.55;;;3.28;;
29352;SDS011;16344;50.364;8.944;2023-03-15T12:37:18;5.35;;;3.10;;
29352;SDS011;16344;50.364;8.944;2023-03-15T12:39:53;12.05;;;4.60;;
29352;SDS011;16344;50.364;8.944;2023-03-15T12:48:12;10.50;;;4.85;;
29352;SDS011;16344;50.364;8.944;2023-03-15T12:58:43;11.40;;;5.25;;
29352;SDS011;16344;50.364;8.944;2023-03-15T13:01:12;9.07;;;5.55;;
29352;SDS011;16344;50.364;8.944;2023-03-15T13:07:08;17.77;;;7.97;;
29352;SDS011;16344;50.364;8.944;2023-03-15T13:12:29;11.48;;;5.90;;
29352;SDS011;16344;50.364;8.944;2023-03-15T13:15:01;9.25;;;5.50;;
29352;SDS011;16344;50.364;8.944;2023-03-15T13:17:38;12.88;;;6.32;;
29352;SDS011;16344;50.364;8.944;2023-03-15T13:23:15;4.68;;;3.15;;
29352;SDS011;16344;50.364;8.944;2023-03-15T13:25:53;6.50;;;3.50;;
29352;SDS011;16344;50.364;8.944;2023-03-15T13:28:46;10.13;;;4.47;;
29352;SDS011;16344;50.364;8.944;2023-03-15T13:31:21;9.10;;;4.05;;
29352;SDS011;16344;50.364;8.944;2023-03-15T13:33:50;6.38;;;3.97;;
29352;SDS011;16344;50.364;8.944;2023-03-15T13:36:24;5.68;;;3.42;;
29352;SDS011;16344;50.364;8.944;2023-03-15T13:38:53;5.40;;;3.50;;
29352;SDS011;16344;50.364;8.944;2023-03-15T13:41:23;6.10;;;3.63;;
29352;SDS011;16344;50.364;8.944;2023-03-15T13:43:51;8.73;;;3.70;;
29352;SDS011;16344;50.364;8.944;2023-03-15T13:46:19;9.55;;;3.63;;
29352;SDS011;16344;50.364;8.944;2023-03-15T13:48:50;9.63;;;3.88;;
29352;SDS011;16344;50.364;8.944;2023-03-15T13:51:22;7.07;;;3.33;;
29352;SDS011;16344;50.364;8.944;2023-03-15T13:54:38;5.88;;;2.72;;
29352;SDS011;16344;50.364;8.944;2023-03-15T13:56:54;8.55;;;3.45;;
29352;SDS011;16344;50.364;8.944;2023-03-15T14:02:10;10.00;;;3.72;;
29352;SDS011;16344;50.364;8.944;2023-03-15T14:04:40;8.63;;;3.90;;
29352;SDS011;16344;50.364;8.944;2023-03-15T14:07:17;5.05;;;3.20;;
29352;SDS011;16344;50.364;8.944;2023-03-15T14:12:43;8.57;;;4.10;;
29352;SDS011;16344;50.364;8.944;2023-03-15T14:15:16;10.93;;;3.95;;
29352;SDS011;16344;50.364;8.944;2023-03-15T14:20:52;7.07;;;3.63;;
29352;SDS011;16344;50.364;8.944;2023-03-15T14:23:23;8.38;;;4.03;;
29352;SDS011;16344;50.364;8.944;2023-03-15T14:25:51;7.60;;;4.07;;
29352;SDS011;16344;50.364;8.944;2023-03-15T14:28:18;8.30;;;2.80;;
29352;SDS011;16344;50.364;8.944;2023-03-15T14:30:52;9.60;;;4.10;;
29352;SDS011;16344;50.364;8.944;2023-03-15T14:33:37;10.52;;;4.40;;
29352;SDS011;16344;50.364;8.944;2023-03-15T14:36:50;12.23;;;4.75;;
29352;SDS011;16344;50.364;8.944;2023-03-15T14:38:56;9.25;;;3.97;;
29352;SDS011;16344;50.364;8.944;2023-03-15T14:41:28;8.68;;;4.13;;
29352;SDS011;16344;50.364;8.944;2023-03-15T14:43:56;12.52;;;4.57;;
29352;SDS011;16344;50.364;8.944;2023-03-15T14:46:23;12.52;;;3.70;;
29352;SDS011;16344;50.364;8.944;2023-03-15T14:48:50;9.52;;;4.10;;
29352;SDS011;16344;50.364;8.944;2023-03-15T14:51:17;5.90;;;3.10;;
29352;SDS011;16344;50.364;8.944;2023-03-15T14:53:44;14.50;;;4.78;;
29352;SDS011;16344;50.364;8.944;2023-03-15T14:56:12;8.15;;;4.30;;
29352;SDS011;16344;50.364;8.944;2023-03-15T14:58:38;7.15;;;3.10;;
29352;SDS011;16344;50.364;8.944;2023-03-15T15:01:05;9.80;;;3.55;;
29352;SDS011;16344;50.364;8.944;2023-03-15T15:06:08;7.07;;;3.35;;
29352;SDS011;16344;50.364;8.944;2023-03-15T15:08:37;9.15;;;3.00;;
29352;SDS011;16344;50.364;8.944;2023-03-15T15:11:06;9.05;;;3.70;;
29352;SDS011;16344;50.364;8.944;2023-03-15T15:13:35;6.20;;;3.22;;
29352;SDS011;16344;50.364;8.944;2023-03-15T15:16:02;7.70;;;2.65;;
29352;SDS011;16344;50.364;8.944;2023-03-15T15:18:33;8.77;;;2.67;;
29352;SDS011;16344;50.364;8.944;2023-03-15T15:21:01;6.53;;;2.53;;
29352;SDS011;16344;50.364;8.944;2023-03-15T15:23:35;5.38;;;2.55;;
29352;SDS011;16344;50.364;8.944;2023-03-15T15:26:10;8.18;;;2.67;;
29352;SDS011;16344;50.364;8.944;2023-03-15T15:28:42;9.48;;;2.63;;
29352;SDS011;16344;50.364;8.944;2023-03-15T15:31:09;6.05;;;2.65;;
29352;SDS011;16344;50.364;8.944;2023-03-15T15:33:38;5.95;;;2.42;;
29352;SDS011;16344;50.364;8.944;2023-03-15T15:36:09;5.10;;;2.70;;
29352;SDS011;16344;50.364;8.944;2023-03-15T15:38:37;11.85;;;2.42;;
29352;SDS011;16344;50.364;8.944;2023-03-15T15:41:04;12.23;;;3.15;;
29352;SDS011;16344;50.364;8.944;2023-03-15T15:43:35;5.05;;;2.50;;
29352;SDS011;16344;50.364;8.944;2023-03-15T15:46:00;9.85;;;2.10;;
29352;SDS011;16344;50.364;8.944;2023-03-15T15:48:26;7.97;;;2.22;;
29352;SDS011;16344;50.364;8.944;2023-03-15T15:50:51;6.07;;;2.75;;
29352;SDS011;16344;50.364;8.944;2023-03-15T15:53:17;8.95;;;2.83;;
29352;SDS011;16344;50.364;8.944;2023-03-15T15:55:43;10.00;;;2.65;;
29352;SDS011;16344;50.364;8.944;2023-03-15T15:58:10;5.55;;;3.10;;
29352;SDS011;16344;50.364;8.944;2023-03-15T16:00:37;7.10;;;2.50;;